createdAt,value
2023-05-07T00:01:02.547Z,6.47
2023-05-07T00:03:30.719Z,9.43
2023-05-07T00:05:58.787Z,7.55
2023-05-07T00:08:26.767Z,8.18
2023-05-07T00:10:56.590Z,10.20
2023-05-07T00:13:24.726Z,8.02
2023-05-07T00:15:52.812Z,9.70
2023-05-07T00:18:23.540Z,5.53
2023-05-07T00:20:51.405Z,5.07
2023-05-07T00:23:19.566Z,7.60
2023-05-07T00:25:47.566Z,8.52
2023-05-07T00:28:16.918Z,11.30
2023-05-07T00:30:45.009Z,9.38
2023-05-07T00:33:13.020Z,10.07
2023-05-07T00:35:41.034Z,9.43
2023-05-07T00:38:09.176Z,10.40
2023-05-07T00:40:37.238Z,7.38
2023-05-07T00:43:05.499Z,8.70
2023-05-07T00:45:35.679Z,7.95
2023-05-07T00:48:04.468Z,12.15
2023-05-07T00:50:33.796Z,9.68
2023-05-07T00:53:02.375Z,6.82
2023-05-07T00:55:30.933Z,7.82
2023-05-07T00:57:58.794Z,8.50
2023-05-07T01:00:26.818Z,8.40
2023-05-07T01:02:56.282Z,8.48
2023-05-07T01:05:25.949Z,10.32
2023-05-07T01:07:55.812Z,8.50
2023-05-07T01:10:24.162Z,7.40
2023-05-07T01:12:52.470Z,8.48
2023-05-07T01:15:20.436Z,9.75
2023-05-07T01:17:48.629Z,8.75
2023-05-07T01:20:18.017Z,7.78
2023-05-07T01:22:47.521Z,7.35
2023-05-07T01:25:17.287Z,7.55
2023-05-07T01:27:45.841Z,8.40
2023-05-07T01:30:14.668Z,6.55
2023-05-07T01:32:45.692Z,8.43
2023-05-07T01:35:16.572Z,9.30
2023-05-07T01:37:44.620Z,10.25
2023-05-07T01:40:14.273Z,8.73
2023-05-07T01:42:43.608Z,8.68
2023-05-07T01:45:12.528Z,6.93
2023-05-07T01:47:41.533Z,7.60
2023-05-07T01:50:11.149Z,10.10
2023-05-07T01:52:40.449Z,7.47
2023-05-07T01:55:09.500Z,6.45
2023-05-07T01:57:41.209Z,7.72
2023-05-07T02:00:10.955Z,8.63
2023-05-07T02:02:40.346Z,7.28
2023-05-07T02:05:09.102Z,7.72
2023-05-07T02:07:37.210Z,8.95
2023-05-07T02:10:06.133Z,6.18
2023-05-07T02:12:34.139Z,4.82
2023-05-07T02:15:04.597Z,6.22
2023-05-07T02:17:33.995Z,9.88
2023-05-07T02:20:02.052Z,8.00
2023-05-07T02:22:30.030Z,6.05
2023-05-07T02:24:58.021Z,10.98
2023-05-07T02:27:26.090Z,7.20
2023-05-07T02:29:54.043Z,6.30
2023-05-07T02:32:24.215Z,7.85
2023-05-07T02:34:53.284Z,6.93
2023-05-07T02:37:21.206Z,9.75
2023-05-07T02:39:49.144Z,6.97
2023-05-07T02:42:17.096Z,9.00
2023-05-07T02:44:44.944Z,6.80
2023-05-07T02:47:14.098Z,11.38
2023-05-07T02:49:43.600Z,8.07
2023-05-07T02:52:11.713Z,5.55
2023-05-07T02:54:39.887Z,7.20
2023-05-07T02:57:08.009Z,6.80
2023-05-07T02:59:36.053Z,6.68
2023-05-07T03:02:03.936Z,8.95
2023-05-07T03:04:31.993Z,6.03
2023-05-07T03:07:01.378Z,6.30
2023-05-07T03:09:29.879Z,5.97
2023-05-07T03:11:58.589Z,8.27
2023-05-07T03:14:26.589Z,8.40
2023-05-07T03:16:54.784Z,7.07
2023-05-07T03:19:22.728Z,6.40
2023-05-07T03:21:50.959Z,7.32
2023-05-07T03:24:20.315Z,7.32
2023-05-07T03:26:48.320Z,8.75
2023-05-07T03:29:16.389Z,7.30
2023-05-07T03:31:44.763Z,7.25
2023-05-07T03:34:12.746Z,7.55
2023-05-07T03:36:40.834Z,7.15
2023-05-07T03:39:09.232Z,6.57
2023-05-07T03:41:38.573Z,5.80
2023-05-07T03:44:06.981Z,7.28
2023-05-07T03:46:35.953Z,7.32
2023-05-07T03:49:03.870Z,8.45
2023-05-07T03:51:32.539Z,7.72
2023-05-07T03:54:00.644Z,6.35
2023-05-07T03:56:28.937Z,5.68
2023-05-07T03:58:58.518Z,6.20
2023-05-07T04:01:27.238Z,7.32
2023-05-07T04:03:55.797Z,9.20
2023-05-07T04:06:23.938Z,6.80
2023-05-07T04:08:52.200Z,7.55
2023-05-07T04:11:21.322Z,5.60
2023-05-07T04:13:49.496Z,9.55
2023-05-07T04:16:18.909Z,5.80
2023-05-07T04:18:46.954Z,5.68
2023-05-07T04:21:18.084Z,9.18
2023-05-07T04:23:46.386Z,6.60
2023-05-07T04:26:14.387Z,9.30
2023-05-07T04:28:42.615Z,10.45
2023-05-07T04:31:10.793Z,9.60
2023-05-07T04:33:40.337Z,9.68
2023-05-07T04:36:08.503Z,9.23
2023-05-07T04:38:37.138Z,7.68
2023-05-07T04:41:06.238Z,10.02
2023-05-07T04:43:34.788Z,6.85
2023-05-07T04:46:02.836Z,6.65
2023-05-07T04:48:31.091Z,8.02
2023-05-07T04:51:00.541Z,9.68
2023-05-07T04:53:28.758Z,5.95
2023-05-07T04:56:00.524Z,7.95
2023-05-07T04:58:32.441Z,7.68
2023-05-07T05:01:01.465Z,7.38
2023-05-07T05:03:29.873Z,11.13
2023-05-07T05:06:00.359Z,7.75
2023-05-07T05:08:29.828Z,8.52
2023-05-07T05:10:57.816Z,4.90
2023-05-07T05:13:25.920Z,5.38
2023-05-07T05:15:53.901Z,5.80
2023-05-07T05:18:24.708Z,4.90
2023-05-07T05:20:53.572Z,5.75
2023-05-07T05:23:21.908Z,6.88
2023-05-07T05:25:51.250Z,8.35
2023-05-07T05:28:19.485Z,8.40
2023-05-07T05:30:47.530Z,8.80
2023-05-07T05:33:15.885Z,8.75
2023-05-07T05:35:43.952Z,7.40
2023-05-07T05:38:12.200Z,12.98
2023-05-07T05:40:40.260Z,9.43
2023-05-07T05:43:09.608Z,5.68
2023-05-07T05:45:37.599Z,7.38
2023-05-07T05:48:06.728Z,6.38
2023-05-07T05:50:36.719Z,7.10
2023-05-07T05:53:04.812Z,5.65
2023-05-07T05:55:33.446Z,7.28
2023-05-07T05:58:01.886Z,6.20
2023-05-07T06:00:31.606Z,7.03
2023-05-07T06:02:59.621Z,10.02
2023-05-07T06:05:27.732Z,8.38
2023-05-07T06:07:56.052Z,6.88
2023-05-07T06:10:25.071Z,9.90
2023-05-07T06:12:53.164Z,7.57
2023-05-07T06:15:21.819Z,8.95
2023-05-07T06:17:51.338Z,7.82
2023-05-07T06:20:19.662Z,9.40
2023-05-07T06:22:47.666Z,10.70
2023-05-07T06:25:15.955Z,8.82
2023-05-07T06:27:43.959Z,10.10
2023-05-07T06:30:12.900Z,7.25
2023-05-07T06:32:42.542Z,8.30
2023-05-07T06:35:12.187Z,9.60
2023-05-07T06:37:40.671Z,8.02
2023-05-07T06:40:10.157Z,7.72
2023-05-07T06:42:38.479Z,8.32
2023-05-07T06:45:07.512Z,10.20
2023-05-07T06:47:35.551Z,10.10
2023-05-07T06:50:03.688Z,10.30
2023-05-07T06:52:33.092Z,10.80
2023-05-07T06:55:02.173Z,9.15
2023-05-07T06:57:30.438Z,7.28
2023-05-07T06:59:58.613Z,7.97
2023-05-07T07:02:26.879Z,8.63
2023-05-07T07:04:54.867Z,11.25
2023-05-07T07:07:22.951Z,7.53
2023-05-07T07:09:53.356Z,5.85
2023-05-07T07:12:21.262Z,8.25
2023-05-07T07:14:55.511Z,7.30
2023-05-07T07:17:30.106Z,6.97
2023-05-07T07:19:58.201Z,8.95
2023-05-07T07:22:26.322Z,6.15
2023-05-07T07:24:55.807Z,9.52
2023-05-07T07:27:24.000Z,11.02
2023-05-07T07:29:52.163Z,7.60
2023-05-07T07:32:21.251Z,4.70
2023-05-07T07:34:49.197Z,6.43
2023-05-07T07:37:17.404Z,7.15
2023-05-07T07:39:45.328Z,6.65
2023-05-07T07:42:14.695Z,5.43
2023-05-07T07:44:42.665Z,7.78
2023-05-07T07:47:10.899Z,6.57
2023-05-07T07:49:38.928Z,6.45
2023-05-07T07:52:07.016Z,5.00
2023-05-07T07:54:35.278Z,7.53
2023-05-07T07:57:03.552Z,7.82
2023-05-07T07:59:32.769Z,7.28
2023-05-07T08:02:00.876Z,4.22
2023-05-07T08:04:28.805Z,6.60
2023-05-07T08:06:57.059Z,6.03
2023-05-07T08:09:25.007Z,7.15
2023-05-07T08:11:52.940Z,6.70
2023-05-07T08:14:20.964Z,7.57
2023-05-07T08:16:50.491Z,4.57
2023-05-07T08:19:18.361Z,4.72
2023-05-07T08:21:48.635Z,5.03
2023-05-07T08:24:16.794Z,5.15
2023-05-07T08:26:47.534Z,4.40
2023-05-07T08:29:15.841Z,4.25
2023-05-07T08:31:43.820Z,4.78
2023-05-07T08:34:13.279Z,7.13
2023-05-07T08:36:42.750Z,6.30
2023-05-07T08:39:10.859Z,3.80
2023-05-07T08:41:38.960Z,4.85
2023-05-07T08:44:08.712Z,5.25
2023-05-07T08:46:37.115Z,4.70
2023-05-07T08:49:05.084Z,4.88
2023-05-07T08:51:34.461Z,32.03
2023-05-07T08:54:03.628Z,11.57
2023-05-07T08:56:31.793Z,10.63
2023-05-07T08:58:59.926Z,11.35
2023-05-07T09:01:28.412Z,10.65
2023-05-07T09:03:56.707Z,5.88
2023-05-07T09:06:25.027Z,6.80
2023-05-07T09:08:55.603Z,6.05
2023-05-07T09:11:24.475Z,5.50
2023-05-07T09:13:56.510Z,7.32
2023-05-07T09:16:24.819Z,6.72
2023-05-07T09:18:53.914Z,6.15
2023-05-07T09:21:23.801Z,5.90
2023-05-07T09:23:55.480Z,6.43
2023-05-07T09:26:23.918Z,4.00
2023-05-07T09:28:52.658Z,5.40
2023-05-07T09:31:21.731Z,3.78
2023-05-07T09:33:49.921Z,4.65
2023-05-07T09:36:18.183Z,4.38
2023-05-07T09:38:47.595Z,3.50
2023-05-07T09:41:17.032Z,5.88
2023-05-07T09:43:45.108Z,4.97
2023-05-07T09:46:15.100Z,5.32
2023-05-07T09:48:45.140Z,4.53
2023-05-07T09:51:19.788Z,6.05
2023-05-07T09:53:48.149Z,5.65
2023-05-07T09:56:17.790Z,4.40
2023-05-07T09:58:46.148Z,5.18
2023-05-07T10:01:15.034Z,4.65
2023-05-07T10:03:44.084Z,6.70
2023-05-07T10:06:12.588Z,4.70
2023-05-07T10:08:41.453Z,5.18
2023-05-07T10:11:09.716Z,5.43
2023-05-07T10:13:39.408Z,7.45
2023-05-07T10:16:08.576Z,6.47
2023-05-07T10:18:36.648Z,5.72
2023-05-07T10:21:09.154Z,5.88
2023-05-07T10:23:37.862Z,5.32
2023-05-07T10:26:07.542Z,3.85
2023-05-07T10:28:40.858Z,3.75
2023-05-07T10:31:20.829Z,3.08
2023-05-07T10:33:49.421Z,2.90
2023-05-07T10:36:17.484Z,5.00
2023-05-07T10:38:45.350Z,3.28
2023-05-07T10:41:13.548Z,5.50
2023-05-07T10:43:44.015Z,2.88
2023-05-07T10:46:13.137Z,3.50
2023-05-07T10:49:12.659Z,3.15
2023-05-07T10:51:41.109Z,4.50
2023-05-07T10:54:29.658Z,2.95
2023-05-07T10:56:57.581Z,4.15
2023-05-07T10:59:41.902Z,4.45
2023-05-07T11:02:12.061Z,3.28
2023-05-07T11:04:41.276Z,4.28
2023-05-07T11:07:31.616Z,4.47
2023-05-07T11:10:05.611Z,2.75
2023-05-07T11:12:55.836Z,3.08
2023-05-07T11:15:38.930Z,3.30
2023-05-07T11:18:07.084Z,4.30
2023-05-07T11:20:52.451Z,3.78
2023-05-07T11:24:11.420Z,3.47
2023-05-07T11:26:47.671Z,3.20
2023-05-07T11:29:18.837Z,5.00
2023-05-07T11:31:52.861Z,2.75
2023-05-07T11:34:24.793Z,2.75
2023-05-07T11:36:52.782Z,2.65
2023-05-07T11:39:31.025Z,3.58
2023-05-07T11:41:59.275Z,3.28
2023-05-07T11:44:27.281Z,3.88
2023-05-07T11:46:56.620Z,3.03
2023-05-07T11:49:27.482Z,4.20
2023-05-07T11:51:55.936Z,2.65
2023-05-07T11:54:23.835Z,3.53
2023-05-07T11:56:51.762Z,3.50
2023-05-07T11:59:20.935Z,2.33
2023-05-07T12:01:49.594Z,2.63
2023-05-07T12:04:24.536Z,3.42
2023-05-07T12:06:56.727Z,2.72
2023-05-07T12:09:24.802Z,3.20
2023-05-07T12:11:54.073Z,3.22
2023-05-07T12:14:21.930Z,2.40
2023-05-07T12:16:50.077Z,2.88
2023-05-07T12:19:18.085Z,2.97
2023-05-07T12:21:47.366Z,2.92
2023-05-07T12:24:16.624Z,2.90
2023-05-07T12:26:45.623Z,3.58
2023-05-07T12:29:13.519Z,3.95
2023-05-07T12:31:42.971Z,3.25
2023-05-07T12:34:12.990Z,3.90
2023-05-07T12:36:41.502Z,4.00
2023-05-07T12:39:11.159Z,3.60
2023-05-07T12:41:55.465Z,3.65
2023-05-07T12:44:24.781Z,3.92
2023-05-07T12:46:53.223Z,4.28
2023-05-07T12:49:23.757Z,4.68
2023-05-07T12:51:53.027Z,5.60
2023-05-07T12:54:32.152Z,5.35
2023-05-07T12:57:04.506Z,6.15
2023-05-07T12:59:36.421Z,6.10
2023-05-07T13:02:04.402Z,6.50
2023-05-07T13:04:32.578Z,5.40
2023-05-07T13:07:00.636Z,5.97
2023-05-07T13:09:30.039Z,5.22
2023-05-07T13:12:01.067Z,5.85
2023-05-07T13:14:29.131Z,5.68
2023-05-07T13:16:57.052Z,5.50
2023-05-07T13:19:25.002Z,5.55
2023-05-07T13:21:52.866Z,5.85
2023-05-07T13:24:21.001Z,5.68
2023-05-07T13:26:48.931Z,6.40
2023-05-07T13:29:18.247Z,6.60
2023-05-07T13:31:47.757Z,7.03
2023-05-07T13:34:16.316Z,7.65
2023-05-07T13:36:44.211Z,8.07
2023-05-07T13:39:12.152Z,7.50
2023-05-07T13:41:40.081Z,7.25
2023-05-07T13:44:08.003Z,6.90
2023-05-07T13:46:37.442Z,8.13
2023-05-07T13:49:05.663Z,8.25
2023-05-07T13:51:33.655Z,8.95
2023-05-07T13:54:02.389Z,8.65
2023-05-07T13:56:32.381Z,8.48
2023-05-07T13:59:01.005Z,9.07
2023-05-07T14:01:29.889Z,9.77
2023-05-07T14:04:00.581Z,9.35
2023-05-07T14:06:28.670Z,9.15
2023-05-07T14:08:59.070Z,8.38
2023-05-07T14:11:27.086Z,5.93
2023-05-07T14:13:54.981Z,5.07
2023-05-07T14:16:22.912Z,4.70
2023-05-07T14:18:50.883Z,4.50
2023-05-07T14:21:20.125Z,4.28
2023-05-07T14:23:48.268Z,5.07
2023-05-07T14:26:16.208Z,3.08
2023-05-07T14:28:47.232Z,2.83
2023-05-07T14:31:15.333Z,3.17
2023-05-07T14:33:43.305Z,2.85
2023-05-07T14:36:11.242Z,3.50
2023-05-07T14:38:40.790Z,2.70
2023-05-07T14:41:08.669Z,3.15
2023-05-07T14:43:36.592Z,3.25
2023-05-07T14:46:04.573Z,3.85
2023-05-07T14:48:32.441Z,4.35
2023-05-07T14:51:00.386Z,2.80
2023-05-07T14:53:28.254Z,3.22
2023-05-07T14:55:57.606Z,4.32
2023-05-07T14:58:25.918Z,3.15
2023-05-07T15:00:53.791Z,3.15
2023-05-07T15:03:22.934Z,4.18
2023-05-07T15:05:52.346Z,4.18
2023-05-07T15:08:20.522Z,3.50
2023-05-07T15:10:48.521Z,4.00
2023-05-07T15:13:17.897Z,3.53
2023-05-07T15:15:46.695Z,3.88
2023-05-07T15:18:14.847Z,4.10
2023-05-07T15:20:42.869Z,3.80
2023-05-07T15:23:13.084Z,5.40
2023-05-07T15:25:41.199Z,4.72
2023-05-07T15:28:09.592Z,4.38
2023-05-07T15:30:38.860Z,4.80
2023-05-07T15:33:06.933Z,5.45
2023-05-07T15:35:34.925Z,5.22
2023-05-07T15:38:04.472Z,6.38
2023-05-07T15:40:32.597Z,4.97
2023-05-07T15:43:01.164Z,5.15
2023-05-07T15:45:30.230Z,5.43
2023-05-07T15:47:59.745Z,5.47
2023-05-07T15:50:27.742Z,4.50
2023-05-07T15:52:55.617Z,4.30
2023-05-07T15:55:23.652Z,5.07
2023-05-07T15:57:51.661Z,4.43
2023-05-07T16:00:20.403Z,4.32
2023-05-07T16:02:48.526Z,4.50
2023-05-07T16:05:17.903Z,4.63
2023-05-07T16:07:45.854Z,5.20
2023-05-07T16:10:13.764Z,4.13
2023-05-07T16:12:41.729Z,6.20
2023-05-07T16:15:10.201Z,4.60
2023-05-07T16:17:38.201Z,5.13
2023-05-07T16:20:09.161Z,4.97
2023-05-07T16:22:38.483Z,4.95
2023-05-07T16:25:10.919Z,4.35
2023-05-07T16:27:39.324Z,5.22
2023-05-07T16:30:08.800Z,5.47
2023-05-07T16:32:37.104Z,5.60
2023-05-07T16:35:06.001Z,5.07
2023-05-07T16:37:34.278Z,7.35
2023-05-07T16:40:07.337Z,5.95
2023-05-07T16:42:35.331Z,6.07
2023-05-07T16:45:04.503Z,5.22
2023-05-07T16:47:32.794Z,5.25
2023-05-07T16:50:01.527Z,5.50
2023-05-07T16:52:31.146Z,5.47
2023-05-07T16:55:01.365Z,4.95
2023-05-07T16:57:31.520Z,5.10
2023-05-07T17:00:00.452Z,5.50
2023-05-07T17:02:29.002Z,5.35
2023-05-07T17:04:57.058Z,6.40
2023-05-07T17:07:26.936Z,5.05
2023-05-07T17:09:54.850Z,6.13
2023-05-07T17:12:22.769Z,5.05
2023-05-07T17:14:52.121Z,5.25
2023-05-07T17:17:20.060Z,5.15
2023-05-07T17:19:48.005Z,5.18
2023-05-07T17:22:16.425Z,4.70
2023-05-07T17:24:44.547Z,5.13
2023-05-07T17:27:12.520Z,5.22
2023-05-07T17:29:40.381Z,6.15
2023-05-07T17:32:09.817Z,6.47
2023-05-07T17:34:37.866Z,5.28
2023-05-07T17:37:05.737Z,6.50
2023-05-07T17:39:33.619Z,5.93
2023-05-07T17:42:01.527Z,5.55
2023-05-07T17:44:29.454Z,8.07
2023-05-07T17:46:57.374Z,7.88
2023-05-07T17:49:26.918Z,7.03
2023-05-07T17:51:55.798Z,7.40
2023-05-07T17:54:26.060Z,7.22
2023-05-07T17:56:54.090Z,7.22
2023-05-07T17:59:22.003Z,7.63
2023-05-07T18:01:50.064Z,7.60
2023-05-07T18:04:19.985Z,7.68
2023-05-07T18:06:49.402Z,6.82
2023-05-07T18:09:17.348Z,7.82
2023-05-07T18:11:45.332Z,7.72
2023-05-07T18:14:13.337Z,7.50
2023-05-07T18:16:41.439Z,7.82
2023-05-07T18:19:09.415Z,8.45
2023-05-07T18:21:37.464Z,15.00
2023-05-07T18:24:07.615Z,7.60
2023-05-07T18:26:38.013Z,8.57
2023-05-07T18:29:05.900Z,8.25
2023-05-07T18:31:35.347Z,8.38
2023-05-07T18:34:06.312Z,7.57
2023-05-07T18:36:34.462Z,8.70
2023-05-07T18:39:02.368Z,8.35
2023-05-07T18:41:32.808Z,9.10
2023-05-07T18:44:00.720Z,8.27
2023-05-07T18:46:29.506Z,8.57
2023-05-07T18:48:57.622Z,12.50
2023-05-07T18:51:25.679Z,10.35
2023-05-07T18:53:53.605Z,11.55
2023-05-07T18:56:21.717Z,14.90
2023-05-07T18:58:51.012Z,11.65
2023-05-07T19:01:18.974Z,11.80
2023-05-07T19:03:46.842Z,13.93
2023-05-07T19:06:14.806Z,15.45
2023-05-07T19:08:42.703Z,11.75
2023-05-07T19:11:10.720Z,14.07
2023-05-07T19:13:38.621Z,13.75
2023-05-07T19:16:10.422Z,10.73
2023-05-07T19:18:38.348Z,16.88
2023-05-07T19:21:06.270Z,13.57
2023-05-07T19:23:34.443Z,14.43
2023-05-07T19:26:03.862Z,14.35
2023-05-07T19:28:31.776Z,15.80
2023-05-07T19:30:59.640Z,13.93
2023-05-07T19:33:29.892Z,13.40
2023-05-07T19:35:59.265Z,20.27
2023-05-07T19:38:27.308Z,18.73
2023-05-07T19:40:55.481Z,16.60
2023-05-07T19:43:23.405Z,21.25
2023-05-07T19:45:54.755Z,15.13
2023-05-07T19:48:22.742Z,13.13
2023-05-07T19:50:52.152Z,16.40
2023-05-07T19:53:20.102Z,11.73
2023-05-07T19:55:48.068Z,11.70
2023-05-07T19:58:16.849Z,9.32
2023-05-07T20:00:44.756Z,10.38
2023-05-07T20:03:18.594Z,14.48
2023-05-07T20:05:47.339Z,18.88
2023-05-07T20:08:16.572Z,13.57
2023-05-07T20:10:44.529Z,20.38
2023-05-07T20:13:12.550Z,15.88
2023-05-07T20:15:41.181Z,16.17
2023-05-07T20:18:09.441Z,18.98
2023-05-07T20:20:37.630Z,18.83
2023-05-07T20:23:05.513Z,14.27
2023-05-07T20:25:34.994Z,15.32
2023-05-07T20:28:02.930Z,18.02
2023-05-07T20:30:30.949Z,16.75
2023-05-07T20:32:59.168Z,16.73
2023-05-07T20:35:27.216Z,17.23
2023-05-07T20:37:55.206Z,14.57
2023-05-07T20:40:23.256Z,14.55
2023-05-07T20:42:52.528Z,18.00
2023-05-07T20:45:20.774Z,15.35
2023-05-07T20:47:48.789Z,18.05
2023-05-07T20:50:16.809Z,16.02
2023-05-07T20:52:45.212Z,16.67
2023-05-07T20:55:13.092Z,21.27
2023-05-07T20:57:40.998Z,17.50
2023-05-07T21:00:11.761Z,16.48
2023-05-07T21:02:40.042Z,16.92
2023-05-07T21:05:08.521Z,15.63
2023-05-07T21:07:36.372Z,16.23
2023-05-07T21:10:04.630Z,16.55
2023-05-07T21:12:32.537Z,19.70
2023-05-07T21:15:00.575Z,17.55
2023-05-07T21:17:31.844Z,15.48
2023-05-07T21:20:00.054Z,15.30
2023-05-07T21:22:27.969Z,15.52
2023-05-07T21:24:55.903Z,14.98
2023-05-07T21:27:24.148Z,17.45
2023-05-07T21:29:52.075Z,16.55
2023-05-07T21:32:20.015Z,17.15
2023-05-07T21:34:49.262Z,17.00
2023-05-07T21:37:17.149Z,16.85
2023-05-07T21:39:45.058Z,14.30
2023-05-07T21:42:12.987Z,15.57
2023-05-07T21:44:40.876Z,18.98
2023-05-07T21:47:08.770Z,22.85
2023-05-07T21:49:37.137Z,18.42
2023-05-07T21:52:06.382Z,20.08
2023-05-07T21:54:34.257Z,20.55
2023-05-07T21:57:02.619Z,19.85
2023-05-07T21:59:30.556Z,24.98
2023-05-07T22:01:58.418Z,21.38
2023-05-07T22:04:26.352Z,23.58
2023-05-07T22:06:54.295Z,26.75
2023-05-07T22:09:23.590Z,22.80
2023-05-07T22:11:51.476Z,18.83
2023-05-07T22:14:21.220Z,19.80
2023-05-07T22:16:49.444Z,19.10
2023-05-07T22:19:17.355Z,29.40
2023-05-07T22:21:45.378Z,19.95
2023-05-07T22:24:13.195Z,389.17
2023-05-07T22:26:42.443Z,66.60
2023-05-07T22:29:10.314Z,19.77
2023-05-07T22:31:38.210Z,26.50
2023-05-07T22:34:06.143Z,26.05
2023-05-07T22:36:34.016Z,21.25
2023-05-07T22:39:03.020Z,149.55
2023-05-07T22:41:30.984Z,374.80
2023-05-07T22:44:00.644Z,213.02
2023-05-07T22:46:28.539Z,24.08
2023-05-07T22:48:58.960Z,158.98
2023-05-07T22:51:27.391Z,448.08
2023-05-07T22:53:55.316Z,338.13
2023-05-07T22:56:23.405Z,189.20
2023-05-07T22:58:51.431Z,324.95
2023-05-07T23:01:20.819Z,234.90
2023-05-07T23:03:48.875Z,204.88
2023-05-07T23:06:16.765Z,188.95
2023-05-07T23:08:44.650Z,243.93
2023-05-07T23:11:12.494Z,214.68
2023-05-07T23:13:40.453Z,122.88
2023-05-07T23:16:08.693Z,218.68
2023-05-07T23:18:38.188Z,82.93
2023-05-07T23:21:06.765Z,90.60
2023-05-07T23:23:35.646Z,83.30
2023-05-07T23:26:03.522Z,34.22
2023-05-07T23:28:31.480Z,46.85
2023-05-07T23:30:59.513Z,52.50
2023-05-07T23:33:27.582Z,77.95
2023-05-07T23:36:01.547Z,24.63
2023-05-07T23:38:29.384Z,39.22
2023-05-07T23:40:57.665Z,44.35
2023-05-07T23:43:25.561Z,66.53
2023-05-07T23:45:53.673Z,98.70
2023-05-07T23:48:21.580Z,124.82
2023-05-07T23:50:49.511Z,73.38
2023-05-07T23:53:18.799Z,117.35
2023-05-07T23:55:46.655Z,132.98
2023-05-07T23:58:14.552Z,144.55
